Terminal Aerodrome Forecast
Issued by NWS

Home | Current Version | Previous Version | Graphics & Text | Print | Product List | Glossary On
Versions: 1 2 3 4 5 6 7 8 9 10 11 12 13 14 15 16 17
745
FTUS43 KMPX 042335
TAFAXN
TAF
KAXN 042335Z 0500/0524 26010KT P6SM SCT010 OVC025
     FM050300 23007KT P6SM SCT025 SCT200
     FM050900 14008KT 6SM BR BKN150
     FM051500 14012G20KT P6SM OVC100=

USA.gov is the U.S. government's official web portal to all federal, state and local government web resources and services.